Terminal Aerodrome Forecast
Issued by NWS

Home | Current Version | Previous Version | Text Only | Print | Product List | Glossary Off
Versions: 1 2 3 4 5 6 7 8 9 10 11 12 13 14 15 16 17 18 19

062
FTUS43 KICT 190520
TAFRSL
TAF
KRSL 190520Z 1906/2006 19017G24KT P6SM SCT250 WS020/21045KT
     FM190800 26017G25KT P6SM SCT120
     FM191100 31016G24KT P6SM BKN012
     FM191200 35015G23KT P6SM BKN045
     FM192100 01012KT P6SM SCT120
     FM200400 03011KT P6SM BKN030=

USA.gov is the U.S. government's official web portal to all federal, state and local government web resources and services.